Arklow Rock — PBZM — position and weather

sailwx.info

Track history (hours):
 
Tides and Currents Weather Stations Pressure Air Temp Water Temp Dewpoint Dewpoint Depression Visibility Wind Speed Wind Dir Waves Ship Positions

Arklow Rock

Last reported at 2015-Mar-27 22:31 UTC. Time now 2015-Mar-29 22:23 UTC.
Position N 51°26' W 007°37'.

Length 90 m; draft 6.2 m.

Type: Cargo ship. MMSI: 246002000.

Date/timePositionNaut miles runAvg speedWind from/ knotsBaromVisibWave heightAir tempDewpointWater temp
2015-Mar-27 22:31N 51°26' W 007°37'1111.3
2015-Mar-27 21:33N 51°26' W 007°55'1111.4
2015-Mar-27 20:34N 51°27' W 008°13'1111.4
2015-Mar-27 19:34N 51°26' W 008°31'1211.6
2015-Mar-27 18:34N 51°25' W 008°49'1111.1
2015-Mar-27 17:33N 51°25' W 009°07'1110.9
2015-Mar-27 16:34N 51°24' W 009°25'1110.5
2015-Mar-27 15:33N 51°25' W 009°42'10 9.9
2015-Mar-27 14:33N 51°28' W 009°57'1010.4
2015-Mar-27 13:34N 51°32' W 010°12'14 9.8
2015-Mar-27 12:05N 51°43' W 010°26'610.3
2015-Mar-27 11:29N 51°49' W 010°30'1010.1
2015-Mar-27 10:33N 51°58' W 010°36'10 9.6
2015-Mar-27 09:28N 52°08' W 010°37'9 9.7
2015-Mar-27 08:33N 52°14' W 010°25'10 9.9
2015-Mar-27 07:33N 52°20' W 010°13'1010.2
2015-Mar-27 06:33N 52°26' W 010°00'1010.1
2015-Mar-27 05:33N 52°32' W 009°46'  
2015-Mar-24 17:19N 52°34' W 009°41'1312.4
2015-Mar-24 16:16N 52°26' W 009°58'811.4
2015-Mar-24 15:33N 52°22' W 010°09'1110.9
2015-Mar-24 14:33N 52°15' W 010°24'1010.3
2015-Mar-24 13:33N 52°09' W 010°36'8 8.3
2015-Mar-24 12:33N 52°00' W 010°37'9 8.4
2015-Mar-24 11:29N 51°52' W 010°32'23 7.8
2015-Mar-24 08:33N 51°32' W 010°13'10 9.6
2015-Mar-24 07:33N 51°28' W 009°59'10 9.9
2015-Mar-24 06:33N 51°25' W 009°44'1010.3
2015-Mar-24 05:33N 51°25' W 009°27'1111.4
2015-Mar-24 04:33N 51°27' W 009°10'1211.7
2015-Mar-24 03:33N 51°31' W 008°52'1212.4
2015-Mar-24 02:33N 51°34' W 008°33'1312.9
2015-Mar-24 01:33N 51°40' W 008°14'1313.0
2015-Mar-24 00:33N 51°47' W 007°56'1312.8
2015-Mar-23 23:33N 51°53' W 007°38'1212.4
2015-Mar-23 22:33N 51°60' W 007°21'1211.8
2015-Mar-23 21:32N 52°05' W 007°04'10 9.4
2015-Mar-23 20:30N 52°15' W 006°58'2 2.6
2015-Mar-23 19:33N 52°16' W 007°02'0 0.0
2015-Mar-23 18:33N 52°16' W 007°02'0 0.0
2015-Mar-23 17:18N 52°16' W 007°02'0 0.0
2015-Mar-23 16:33N 52°16' W 007°02'0 0.0
2015-Mar-23 15:33N 52°16' W 007°02'0 0.0
2015-Mar-23 14:30N 52°16' W 007°02'0 0.0
2015-Mar-23 13:33N 52°16' W 007°02'0 0.0
2015-Mar-23 12:33N 52°16' W 007°02'0 0.0
2015-Mar-23 11:33N 52°16' W 007°02'0 0.0
2015-Mar-23 10:33N 52°16' W 007°02'0 0.0
2015-Mar-23 09:33N 52°16' W 007°02'0 0.0
2015-Mar-23 08:27N 52°16' W 007°02'0 0.0
2015-Mar-23 07:30N 52°16' W 007°02'0 0.0
2015-Mar-23 06:33N 52°16' W 007°02'0 0.0
2015-Mar-23 05:33N 52°16' W 007°02'0 0.0
2015-Mar-23 04:33N 52°16' W 007°02'0 0.0
2015-Mar-23 03:33N 52°16' W 007°02'0 0.0
2015-Mar-23 02:33N 52°16' W 007°02'0 0.0
2015-Mar-23 01:33N 52°16' W 007°02'0 0.0
2015-Mar-23 00:33N 52°16' W 007°02'0 0.0
2015-Mar-22 23:33N 52°16' W 007°02'0 0.0
2015-Mar-22 22:30N 52°16' W 007°02'0 0.0
2015-Mar-22 21:33N 52°16' W 007°02'0 0.0
2015-Mar-22 20:27N 52°16' W 007°02'0 0.0
2015-Mar-22 19:20N 52°16' W 007°02'0 0.0
2015-Mar-22 18:32N 52°16' W 007°02'0 0.0
2015-Mar-22 17:29N 52°16' W 007°02'0 0.0
2015-Mar-22 16:32N 52°16' W 007°02'0 0.0
2015-Mar-22 15:26N 52°16' W 007°02'0 0.0
2015-Mar-22 14:26N 52°16' W 007°02'0 0.0
2015-Mar-22 13:14N 52°16' W 007°02'0 0.0
2015-Mar-22 12:32N 52°16' W 007°02'0 0.0
2015-Mar-22 11:29N 52°16' W 007°02'0 0.0
2015-Mar-22 10:32N 52°16' W 007°02'0 0.0
2015-Mar-22 09:32N 52°16' W 007°02'0 0.0
2015-Mar-22 08:32N 52°16' W 007°02'0 0.0
2015-Mar-22 07:32N 52°16' W 007°02'0 0.0
2015-Mar-22 06:32N 52°16' W 007°02'0 0.0
2015-Mar-22 05:32N 52°16' W 007°02'0 0.0
2015-Mar-22 04:32N 52°16' W 007°02'0 0.0
2015-Mar-22 03:32N 52°16' W 007°02'0 0.0
2015-Mar-22 02:32N 52°16' W 007°02'0 0.0
2015-Mar-22 01:32N 52°16' W 007°02'0 0.0
2015-Mar-22 00:32N 52°16' W 007°02'0 0.0
2015-Mar-21 23:32N 52°16' W 007°02'0 0.0
2015-Mar-21 22:32N 52°16' W 007°02'0 0.0
2015-Mar-21 21:32N 52°16' W 007°02'0 0.0
2015-Mar-21 20:32N 52°16' W 007°02'0 0.0
2015-Mar-21 19:32N 52°16' W 007°02'0 0.0
2015-Mar-21 18:32N 52°16' W 007°02'0 0.0
2015-Mar-21 17:32N 52°16' W 007°02'0 0.0
2015-Mar-21 16:32N 52°16' W 007°02'0 0.0
2015-Mar-21 15:32N 52°16' W 007°02'0 0.0
2015-Mar-21 14:32N 52°16' W 007°02'0 0.0
2015-Mar-21 13:29N 52°16' W 007°02'0 0.0
2015-Mar-21 12:32N 52°16' W 007°02'0 0.0
2015-Mar-21 11:31N 52°16' W 007°02'0 0.0
2015-Mar-21 10:31N 52°16' W 007°02'0 0.0
2015-Mar-21 09:31N 52°16' W 007°02'0 0.0
2015-Mar-21 08:31N 52°16' W 007°02'0 0.0
2015-Mar-21 07:31N 52°16' W 007°02'0 0.0
2015-Mar-21 06:31N 52°16' W 007°02'0 0.0
2015-Mar-21 05:31N 52°16' W 007°02'0 0.0
2015-Mar-21 04:28N 52°16' W 007°02'0 0.0
2015-Mar-21 03:31N 52°16' W 007°02'0 0.0
2015-Mar-21 02:31N 52°16' W 007°02'0 0.0
2015-Mar-21 01:31N 52°16' W 007°02'0 0.0
2015-Mar-21 00:28N 52°16' W 007°02'0 0.0
2015-Mar-20 23:31N 52°16' W 007°02'0 0.0
2015-Mar-20 22:31N 52°16' W 007°02'0 0.0
2015-Mar-20 21:31N 52°16' W 007°02'0 0.0
2015-Mar-20 20:31N 52°16' W 007°02'0 0.0
2015-Mar-20 19:32N 52°16' W 007°02'1 1.4
2015-Mar-20 18:33N 52°16' W 006°59'8 8.5
2015-Mar-20 17:33N 52°08' W 006°58'1311.4
2015-Mar-20 16:27N 51°56' W 006°50'168 8.5
2015-Mar-19 20:33N 50°08' W 003°24'1010.4
2015-Mar-19 19:33N 50°11' W 003°08'10 9.7
2015-Mar-19 18:33N 50°12' W 002°53'13011.8
2015-Mar-19 07:33N 50°37' E 000°27'10 9.7
2015-Mar-19 06:33N 50°41' E 000°40'1211.8
2015-Mar-19 05:33N 50°48' E 000°55'1413.1
2015-Mar-19 04:29N 50°57' E 001°13'1213.2
2015-Mar-19 03:33N 51°05' E 001°28'1111.5
2015-Mar-19 02:34N 51°12' E 001°42'1010.2
2015-Mar-19 01:33N 51°20' E 001°53'9 8.5
2015-Mar-19 00:32N 51°24' E 002°05'9 9.3
2015-Mar-18 23:31N 51°21' E 002°19'9 9.4
2015-Mar-18 22:34N 51°23' E 002°33'9 9.2
2015-Mar-18 21:33N 51°22' E 002°48'1110.8
2015-Mar-18 20:31N 51°22' E 003°06'1111.3
2015-Mar-18 19:33N 51°24' E 003°23'1110.9
2015-Mar-18 18:33N 51°25' E 003°41'7 7.2
2015-Mar-18 17:33N 51°20' E 003°49'1 1.5
2015-Mar-18 16:34N 51°18' E 003°50'2 2.2
2015-Mar-18 15:33N 51°16' E 003°51'0 0.1
2015-Mar-18 14:33N 51°16' E 003°51'0 0.0
2015-Mar-18 13:33N 51°16' E 003°51'0 0.0
2015-Mar-18 12:30N 51°16' E 003°51'0 0.0
2015-Mar-18 11:33N 51°16' E 003°51'0 0.0
2015-Mar-18 10:21N 51°16' E 003°51'0 0.0
2015-Mar-18 09:33N 51°16' E 003°51'0 0.0
2015-Mar-18 08:33N 51°16' E 003°51'0 0.0
2015-Mar-18 07:30N 51°16' E 003°51'0 0.0
2015-Mar-18 06:30N 51°16' E 003°51'0 0.0
2015-Mar-18 05:33N 51°16' E 003°51'0 0.0
2015-Mar-18 04:33N 51°16' E 003°51'0 0.0
2015-Mar-18 03:21N 51°16' E 003°51'0 0.0
2015-Mar-18 02:33N 51°16' E 003°51'0 0.2
2015-Mar-18 01:33N 51°17' E 003°51'0 0.0
2015-Mar-18 00:33N 51°17' E 003°51'0 0.0
2015-Mar-17 23:33N 51°17' E 003°51'0 0.0
2015-Mar-17 22:33N 51°17' E 003°51'  
Track history (hours):
 
Tides and Currents Weather Stations Pressure Air Temp Water Temp Dewpoint Dewpoint Depression Visibility Wind Speed Wind Dir Waves Ship Positions

Arklow Rock

Last reported at 2015-Mar-27 22:31 UTC. Time now 2015-Mar-29 22:23 UTC.
Position N 51°26' W 007°37'.

Length 90 m; draft 6.2 m.

Type: Cargo ship. MMSI: 246002000.

Date/timePositionNaut miles runAvg speedWind from/ knotsBaromVisibWave heightAir tempDewpointWater temp
2015-Mar-27 22:31N 51°26' W 007°37'1111.3
2015-Mar-27 21:33N 51°26' W 007°55'1111.4
2015-Mar-27 20:34N 51°27' W 008°13'1111.4
2015-Mar-27 19:34N 51°26' W 008°31'1211.6
2015-Mar-27 18:34N 51°25' W 008°49'1111.1
2015-Mar-27 17:33N 51°25' W 009°07'1110.9
2015-Mar-27 16:34N 51°24' W 009°25'1110.5
2015-Mar-27 15:33N 51°25' W 009°42'10 9.9
2015-Mar-27 14:33N 51°28' W 009°57'1010.4
2015-Mar-27 13:34N 51°32' W 010°12'14 9.8
2015-Mar-27 12:05N 51°43' W 010°26'610.3
2015-Mar-27 11:29N 51°49' W 010°30'1010.1
2015-Mar-27 10:33N 51°58' W 010°36'10 9.6
2015-Mar-27 09:28N 52°08' W 010°37'9 9.7
2015-Mar-27 08:33N 52°14' W 010°25'10 9.9
2015-Mar-27 07:33N 52°20' W 010°13'1010.2
2015-Mar-27 06:33N 52°26' W 010°00'1010.1
2015-Mar-27 05:33N 52°32' W 009°46'  
2015-Mar-24 17:19N 52°34' W 009°41'1312.4
2015-Mar-24 16:16N 52°26' W 009°58'811.4
2015-Mar-24 15:33N 52°22' W 010°09'1110.9
2015-Mar-24 14:33N 52°15' W 010°24'1010.3
2015-Mar-24 13:33N 52°09' W 010°36'8 8.3
2015-Mar-24 12:33N 52°00' W 010°37'9 8.4
2015-Mar-24 11:29N 51°52' W 010°32'23 7.8
2015-Mar-24 08:33N 51°32' W 010°13'10 9.6
2015-Mar-24 07:33N 51°28' W 009°59'10 9.9
2015-Mar-24 06:33N 51°25' W 009°44'1010.3
2015-Mar-24 05:33N 51°25' W 009°27'1111.4
2015-Mar-24 04:33N 51°27' W 009°10'1211.7
2015-Mar-24 03:33N 51°31' W 008°52'1212.4
2015-Mar-24 02:33N 51°34' W 008°33'1312.9
2015-Mar-24 01:33N 51°40' W 008°14'1313.0
2015-Mar-24 00:33N 51°47' W 007°56'1312.8
2015-Mar-23 23:33N 51°53' W 007°38'1212.4
2015-Mar-23 22:33N 51°60' W 007°21'1211.8
2015-Mar-23 21:32N 52°05' W 007°04'10 9.4
2015-Mar-23 20:30N 52°15' W 006°58'2 2.6
2015-Mar-23 19:33N 52°16' W 007°02'0 0.0
2015-Mar-23 18:33N 52°16' W 007°02'0 0.0
2015-Mar-23 17:18N 52°16' W 007°02'0 0.0
2015-Mar-23 16:33N 52°16' W 007°02'0 0.0
2015-Mar-23 15:33N 52°16' W 007°02'0 0.0
2015-Mar-23 14:30N 52°16' W 007°02'0 0.0
2015-Mar-23 13:33N 52°16' W 007°02'0 0.0
2015-Mar-23 12:33N 52°16' W 007°02'0 0.0
2015-Mar-23 11:33N 52°16' W 007°02'0 0.0
2015-Mar-23 10:33N 52°16' W 007°02'0 0.0
2015-Mar-23 09:33N 52°16' W 007°02'0 0.0
2015-Mar-23 08:27N 52°16' W 007°02'0 0.0
2015-Mar-23 07:30N 52°16' W 007°02'0 0.0
2015-Mar-23 06:33N 52°16' W 007°02'0 0.0
2015-Mar-23 05:33N 52°16' W 007°02'0 0.0
2015-Mar-23 04:33N 52°16' W 007°02'0 0.0
2015-Mar-23 03:33N 52°16' W 007°02'0 0.0
2015-Mar-23 02:33N 52°16' W 007°02'0 0.0
2015-Mar-23 01:33N 52°16' W 007°02'0 0.0
2015-Mar-23 00:33N 52°16' W 007°02'0 0.0
2015-Mar-22 23:33N 52°16' W 007°02'0 0.0
2015-Mar-22 22:30N 52°16' W 007°02'0 0.0
2015-Mar-22 21:33N 52°16' W 007°02'0 0.0
2015-Mar-22 20:27N 52°16' W 007°02'0 0.0
2015-Mar-22 19:20N 52°16' W 007°02'0 0.0
2015-Mar-22 18:32N 52°16' W 007°02'0 0.0
2015-Mar-22 17:29N 52°16' W 007°02'0 0.0
2015-Mar-22 16:32N 52°16' W 007°02'0 0.0
2015-Mar-22 15:26N 52°16' W 007°02'0 0.0
2015-Mar-22 14:26N 52°16' W 007°02'0 0.0
2015-Mar-22 13:14N 52°16' W 007°02'0 0.0
2015-Mar-22 12:32N 52°16' W 007°02'0 0.0
2015-Mar-22 11:29N 52°16' W 007°02'0 0.0
2015-Mar-22 10:32N 52°16' W 007°02'0 0.0
2015-Mar-22 09:32N 52°16' W 007°02'0 0.0
2015-Mar-22 08:32N 52°16' W 007°02'0 0.0
2015-Mar-22 07:32N 52°16' W 007°02'0 0.0
2015-Mar-22 06:32N 52°16' W 007°02'0 0.0
2015-Mar-22 05:32N 52°16' W 007°02'0 0.0
2015-Mar-22 04:32N 52°16' W 007°02'0 0.0
2015-Mar-22 03:32N 52°16' W 007°02'0 0.0
2015-Mar-22 02:32N 52°16' W 007°02'0 0.0
2015-Mar-22 01:32N 52°16' W 007°02'0 0.0
2015-Mar-22 00:32N 52°16' W 007°02'0 0.0
2015-Mar-21 23:32N 52°16' W 007°02'0 0.0
2015-Mar-21 22:32N 52°16' W 007°02'0 0.0
2015-Mar-21 21:32N 52°16' W 007°02'0 0.0
2015-Mar-21 20:32N 52°16' W 007°02'0 0.0
2015-Mar-21 19:32N 52°16' W 007°02'0 0.0
2015-Mar-21 18:32N 52°16' W 007°02'0 0.0
2015-Mar-21 17:32N 52°16' W 007°02'0 0.0
2015-Mar-21 16:32N 52°16' W 007°02'0 0.0
2015-Mar-21 15:32N 52°16' W 007°02'0 0.0
2015-Mar-21 14:32N 52°16' W 007°02'0 0.0
2015-Mar-21 13:29N 52°16' W 007°02'0 0.0
2015-Mar-21 12:32N 52°16' W 007°02'0 0.0
2015-Mar-21 11:31N 52°16' W 007°02'0 0.0
2015-Mar-21 10:31N 52°16' W 007°02'0 0.0
2015-Mar-21 09:31N 52°16' W 007°02'0 0.0
2015-Mar-21 08:31N 52°16' W 007°02'0 0.0
2015-Mar-21 07:31N 52°16' W 007°02'0 0.0
2015-Mar-21 06:31N 52°16' W 007°02'0 0.0
2015-Mar-21 05:31N 52°16' W 007°02'0 0.0
2015-Mar-21 04:28N 52°16' W 007°02'0 0.0
2015-Mar-21 03:31N 52°16' W 007°02'0 0.0
2015-Mar-21 02:31N 52°16' W 007°02'0 0.0
2015-Mar-21 01:31N 52°16' W 007°02'0 0.0
2015-Mar-21 00:28N 52°16' W 007°02'0 0.0
2015-Mar-20 23:31N 52°16' W 007°02'0 0.0
2015-Mar-20 22:31N 52°16' W 007°02'0 0.0
2015-Mar-20 21:31N 52°16' W 007°02'0 0.0
2015-Mar-20 20:31N 52°16' W 007°02'0 0.0
2015-Mar-20 19:32N 52°16' W 007°02'1 1.4
2015-Mar-20 18:33N 52°16' W 006°59'8 8.5
2015-Mar-20 17:33N 52°08' W 006°58'1311.4
2015-Mar-20 16:27N 51°56' W 006°50'168 8.5
2015-Mar-19 20:33N 50°08' W 003°24'1010.4
2015-Mar-19 19:33N 50°11' W 003°08'10 9.7
2015-Mar-19 18:33N 50°12' W 002°53'13011.8
2015-Mar-19 07:33N 50°37' E 000°27'10 9.7
2015-Mar-19 06:33N 50°41' E 000°40'1211.8
2015-Mar-19 05:33N 50°48' E 000°55'1413.1
2015-Mar-19 04:29N 50°57' E 001°13'1213.2
2015-Mar-19 03:33N 51°05' E 001°28'1111.5
2015-Mar-19 02:34N 51°12' E 001°42'1010.2
2015-Mar-19 01:33N 51°20' E 001°53'9 8.5
2015-Mar-19 00:32N 51°24' E 002°05'9 9.3
2015-Mar-18 23:31N 51°21' E 002°19'9 9.4
2015-Mar-18 22:34N 51°23' E 002°33'9 9.2
2015-Mar-18 21:33N 51°22' E 002°48'1110.8
2015-Mar-18 20:31N 51°22' E 003°06'1111.3
2015-Mar-18 19:33N 51°24' E 003°23'1110.9
2015-Mar-18 18:33N 51°25' E 003°41'7 7.2
2015-Mar-18 17:33N 51°20' E 003°49'1 1.5
2015-Mar-18 16:34N 51°18' E 003°50'2 2.2
2015-Mar-18 15:33N 51°16' E 003°51'0 0.1
2015-Mar-18 14:33N 51°16' E 003°51'0 0.0
2015-Mar-18 13:33N 51°16' E 003°51'0 0.0
2015-Mar-18 12:30N 51°16' E 003°51'0 0.0
2015-Mar-18 11:33N 51°16' E 003°51'0 0.0
2015-Mar-18 10:21N 51°16' E 003°51'0 0.0
2015-Mar-18 09:33N 51°16' E 003°51'0 0.0
2015-Mar-18 08:33N 51°16' E 003°51'0 0.0
2015-Mar-18 07:30N 51°16' E 003°51'0 0.0
2015-Mar-18 06:30N 51°16' E 003°51'0 0.0
2015-Mar-18 05:33N 51°16' E 003°51'0 0.0
2015-Mar-18 04:33N 51°16' E 003°51'0 0.0
2015-Mar-18 03:21N 51°16' E 003°51'0 0.0
2015-Mar-18 02:33N 51°16' E 003°51'0 0.2
2015-Mar-18 01:33N 51°17' E 003°51'0 0.0
2015-Mar-18 00:33N 51°17' E 003°51'0 0.0
2015-Mar-17 23:33N 51°17' E 003°51'0 0.0
2015-Mar-17 22:33N 51°17' E 003°51'  

Dump ship's entire track history